Darstellungsparameter: Aktuell verwendete Einstellungen:
Skalierung der Graphiken ... ?
xyx+y,   Skalierungsfaktor:      Skalierung: Modus: x, Faktor: 1
Darstellungszeitraum ... ?
Vom - - bis: - -   Zeitraum: 02.07.2008 - 03.07.2008
Min/Max/Avg-Anzeige ... ?
Zeige MMA aktuell
Zeige MMA Monat
Zeige MMA alles
Zeige --A aktuell
Zeige --A Monat
Zeige --A alles
Keine MMA-Anzeige
MMA:
Keine MMA-Graphiken
MMA-Basis: 02.07.2008 - 03.07.2008
Quicknavigation für Darstellung... ?
Tage:      1T, 2T, 3T, 5T -1T -2T -3T -5T +1T +2T +3T +5T
Wochen: 1W, 2W, 3W -1W -2W -3W +1W +2W +3W
Monate: 1M, 3M, 6M -1M -3M -6M +1M +3M +6M
Jahre:    1J, 3J, 5J, 10J -1J -3J -5J -10J +1J +3J +5J +10J
Nutze für die Darstellung ... ?
Originaldaten oder Mittelwerte auf ...
Stundenbasis Tagesbasis Wochenbasis
Monatsbasis Jahresbasis      Datenbasis: Original-Daten
Darstellen als:
Statistik (Auto) Statistik J:M      Darstellung:
Zur Graphik,    zurück zur Übersicht aller Sensoren.
 
Tabellarische Datenbersicht: ?
 
Sensor: Nr:Datum:Temp:Abs-Feuchte:Windchill:Wind:
Aussen-T/F 1 02-07-2008 00:10:03 24 C 8.49 g/m*3 24 C 0 km/h
2 02-07-2008 00:22:03 23.9 C 8.87 g/m*3 23.9 C 0 km/h
3 02-07-2008 00:34:03 23.9 C 8.65 g/m*3 23.9 C 0 km/h
4 02-07-2008 00:46:03 23.7 C 8.77 g/m*3 23.7 C 0 km/h
5 02-07-2008 00:58:03 23.7 C 8.77 g/m*3 23.7 C 0 km/h
6 02-07-2008 01:10:03 23.6 C 8.93 g/m*3 23.6 C 0 km/h
7 02-07-2008 01:22:03 23.5 C 8.88 g/m*3 23.5 C 0 km/h
8 02-07-2008 01:34:03 23.4 C 8.83 g/m*3 23.4 C 0 km/h
9 02-07-2008 01:46:03 23.2 C 9.15 g/m*3 23.2 C 0 km/h
10 02-07-2008 01:58:03 22.8 C 9.75 g/m*3 22.8 C 0 km/h
11 02-07-2008 02:10:04 22.3 C 9.87 g/m*3 22.3 C 0 km/h
12 02-07-2008 02:22:04 22.1 C 9.56 g/m*3 22.1 C 0 km/h
13 02-07-2008 02:34:04 21.8 C 9.78 g/m*3 21.8 C 0 km/h
14 02-07-2008 02:46:04 21.6 C 9.86 g/m*3 21.6 C 0 km/h
15 02-07-2008 02:58:04 21.4 C 9.75 g/m*3 21.4 C 0 km/h
16 02-07-2008 03:10:04 21.1 C 10.13 g/m*3 21.1 C 0 km/h
17 02-07-2008 03:22:04 21 C 10.08 g/m*3 21 C 0 km/h
18 02-07-2008 03:34:04 20.8 C 10.14 g/m*3 20.8 C 0 km/h
19 02-07-2008 03:46:04 20.6 C 10.02 g/m*3 20.6 C 0 km/h
20 02-07-2008 03:58:04 20.4 C 10.08 g/m*3 20.4 C 0 km/h
21 02-07-2008 04:10:04 20.4 C 10.26 g/m*3 20.4 C 0 km/h
22 02-07-2008 04:22:04 20 C 10.2 g/m*3 20 C 0 km/h
23 02-07-2008 04:34:04 19.7 C 10.36 g/m*3 19.7 C 0 km/h
24 02-07-2008 04:46:04 19.8 C 10.42 g/m*3 19.8 C 0 km/h
25 02-07-2008 04:58:04 19.5 C 10.24 g/m*3 19.5 C 0 km/h
Sensor: Nr:Datum:Temp:Abs-Feuchte:Windchill:Wind:
Aussen-T/F 26 02-07-2008 05:10:04 19.4 C 10.18 g/m*3 19.4 C 0 km/h
27 02-07-2008 05:22:04 19.2 C 10.22 g/m*3 19.2 C 0 km/h
28 02-07-2008 05:34:04 19.1 C 10.16 g/m*3 19.1 C 0 km/h
29 02-07-2008 05:46:04 19 C 10.1 g/m*3 19 C 0 km/h
30 02-07-2008 05:58:04 18.8 C 10.31 g/m*3 18.8 C 0 km/h
31 02-07-2008 06:10:04 18.9 C 10.37 g/m*3 18.9 C 0 km/h
32 02-07-2008 06:22:05 18.9 C 10.69 g/m*3 18.9 C 0 km/h
33 02-07-2008 06:34:05 19.1 C 10.66 g/m*3 19.1 C 0 km/h
34 02-07-2008 06:46:05 19.1 C 10.66 g/m*3 19.1 C 0 km/h
35 02-07-2008 06:58:05 19.2 C 10.72 g/m*3 19.2 C 0 km/h
36 02-07-2008 07:10:03 19.3 C 10.78 g/m*3 19.3 C 0 km/h
37 02-07-2008 07:22:03 19.5 C 10.91 g/m*3 19.5 C 0 km/h
38 02-07-2008 07:34:03 19.7 C 10.87 g/m*3 19.7 C 0 km/h
39 02-07-2008 07:46:02 19.7 C 10.87 g/m*3 19.7 C 0 km/h
40 02-07-2008 07:58:02 19.9 C 11 g/m*3 19.9 C 0 km/h
41 02-07-2008 08:10:02 20.4 C 10.97 g/m*3 20.4 C 0 km/h
42 02-07-2008 08:22:02 20.8 C 11.05 g/m*3 20.8 C 0 km/h
43 02-07-2008 08:34:02 21 C 10.81 g/m*3 21 C 0 km/h
44 02-07-2008 08:46:02 21.5 C 10.94 g/m*3 21.5 C 0 km/h
45 02-07-2008 08:58:02 22 C 10.67 g/m*3 22 C 0 km/h
46 02-07-2008 09:10:03 22.7 C 10.51 g/m*3 22.7 C 0 km/h
47 02-07-2008 09:22:02 23.5 C 10.57 g/m*3 23.5 C 0 km/h
48 02-07-2008 09:34:03 24.2 C 10.56 g/m*3 24.2 C 0 km/h
49 02-07-2008 09:46:02 24.9 C 10.07 g/m*3 24.9 C 0 km/h
50 02-07-2008 09:58:02 25.7 C 9.58 g/m*3 25.7 C 0 km/h
Sensor: Nr:Datum:Temp:Abs-Feuchte:Windchill:Wind:
Aussen-T/F 51 02-07-2008 10:10:01 26.1 C 9.3 g/m*3 26.1 C 0 km/h
52 02-07-2008 10:22:02 26.9 C 9.73 g/m*3 26.9 C 0 km/h
53 02-07-2008 10:34:01 27.5 C 9.26 g/m*3 27.5 C 0 km/h
54 02-07-2008 10:46:02 28.2 C 9.35 g/m*3 28.2 C 0 km/h
55 02-07-2008 10:58:02 28.6 C 9.55 g/m*3 28.6 C 0 km/h
56 02-07-2008 11:10:01 29.4 C 9.69 g/m*3 29.4 C 0 km/h
57 02-07-2008 11:22:02 29.7 C 9.55 g/m*3 29.7 C 0 km/h
58 02-07-2008 11:34:01 30.4 C 9.61 g/m*3 30.4 C 0 km/h
59 02-07-2008 11:46:03 30.8 C 9.5 g/m*3 30.8 C 0 km/h
60 02-07-2008 11:58:03 31.3 C 9.11 g/m*3 31.3 C 0 km/h
61 02-07-2008 12:10:02 31.8 C 8.68 g/m*3 31.8 C 0 km/h
62 02-07-2008 12:22:03 31.4 C 8.5 g/m*3 31.4 C 0 km/h
63 02-07-2008 12:34:02 31.7 C 8.64 g/m*3 31.7 C 0 km/h
64 02-07-2008 12:46:02 31.4 C 8.17 g/m*3 31.4 C 0 km/h
65 02-07-2008 12:58:02 32 C 7.43 g/m*3 32 C 0 km/h
66 02-07-2008 13:10:02 33.3 C 7.23 g/m*3 33.3 C 0 km/h
67 02-07-2008 13:22:02 33.8 C 7.43 g/m*3 33.8 C 0 km/h
68 02-07-2008 13:34:02 34.3 C 7.62 g/m*3 34.3 C 0 km/h
69 02-07-2008 13:46:02 32.3 C 6.86 g/m*3 32.3 C 0 km/h
70 02-07-2008 13:58:02 32.6 C 6.97 g/m*3 32.6 C 0 km/h
71 02-07-2008 14:10:02 32.9 C 7.08 g/m*3 32.9 C 0 km/h
72 02-07-2008 14:22:02 32.5 C 6.93 g/m*3 32.5 C 0 km/h
73 02-07-2008 14:34:02 32.8 C 7.04 g/m*3 32.8 C 0 km/h
74 02-07-2008 14:46:01 33.1 C 7.16 g/m*3 33.1 C 0 km/h
75 02-07-2008 14:58:01 32.5 C 6.93 g/m*3 32.5 C 0 km/h
Sensor: Nr:Datum:Temp:Abs-Feuchte:Windchill:Wind:
Aussen-T/F 76 02-07-2008 15:10:02 32.7 C 7.01 g/m*3 32.7 C 0 km/h
77 02-07-2008 15:22:01 32.5 C 6.93 g/m*3 32.5 C 0 km/h
78 02-07-2008 15:34:02 33.1 C 7.16 g/m*3 33.1 C 0 km/h
79 02-07-2008 15:46:02 33.3 C 7.23 g/m*3 33.3 C 0 km/h
80 02-07-2008 15:58:02 34.3 C 7.62 g/m*3 34.3 C 0 km/h
81 02-07-2008 16:10:02 33.8 C 7.43 g/m*3 33.8 C 0 km/h
82 02-07-2008 16:22:02 33.8 C 7.43 g/m*3 33.8 C 0 km/h
83 02-07-2008 16:34:02 33.8 C 7.43 g/m*3 33.8 C 0 km/h
84 02-07-2008 16:46:02 34.6 C 7.74 g/m*3 34.6 C 0 km/h
85 02-07-2008 16:58:02 34.2 C 7.58 g/m*3 34.2 C 0 km/h
86 02-07-2008 17:10:02 33.5 C 7.31 g/m*3 33.5 C 0 km/h
87 02-07-2008 17:22:02 34.4 C 7.66 g/m*3 34.4 C 0 km/h
88 02-07-2008 17:34:03 34.6 C 7.74 g/m*3 34.6 C 0 km/h
89 02-07-2008 17:46:02 35 C 7.91 g/m*3 35 C 0 km/h
90 02-07-2008 17:58:02 35.3 C 8.03 g/m*3 35.3 C 0 km/h
91 02-07-2008 18:10:01 35.2 C 7.99 g/m*3 35.2 C 0 km/h
92 02-07-2008 18:22:02 35.2 C 7.99 g/m*3 35.2 C 0 km/h
93 02-07-2008 18:34:01 34.6 C 7.74 g/m*3 34.6 C 0 km/h
94 02-07-2008 18:46:02 33.7 C 7.39 g/m*3 33.7 C 0 km/h
95 02-07-2008 18:58:02 33.8 C 7.43 g/m*3 33.8 C 0 km/h
96 02-07-2008 19:10:01 33.2 C 7.55 g/m*3 33.2 C 0 km/h
97 02-07-2008 19:22:02 32 C 7.76 g/m*3 32 C 0 km/h
98 02-07-2008 19:34:01 31.4 C 8.17 g/m*3 31.4 C 0 km/h
99 02-07-2008 19:46:02 30.9 C 8.28 g/m*3 30.9 C 0 km/h
100 02-07-2008 19:58:02 30.6 C 8.14 g/m*3 30.6 C 0 km/h
Sensor: Nr:Datum:Temp:Abs-Feuchte:Windchill:Wind:
Aussen-T/F 101 02-07-2008 20:10:01 30.4 C 8.37 g/m*3 30.4 C 0 km/h
102 02-07-2008 20:22:02 29.2 C 10.16 g/m*3 29.2 C 0 km/h
103 02-07-2008 20:34:01 27.9 C 10.55 g/m*3 27.9 C 0 km/h
104 02-07-2008 20:46:01 28 C 11.15 g/m*3 28 C 0 km/h
105 02-07-2008 20:58:01 25.2 C 15.13 g/m*3 25.2 C 0 km/h
106 02-07-2008 21:10:01 25.3 C 13.11 g/m*3 25.3 C 0 km/h
107 02-07-2008 21:22:01 25.7 C 12.69 g/m*3 25.7 C 0 km/h
108 02-07-2008 21:34:01 24.8 C 12.52 g/m*3 24.8 C 0 km/h
109 02-07-2008 21:46:01 24 C 12.18 g/m*3 24 C 0 km/h
110 02-07-2008 21:58:01 24 C 12.62 g/m*3 24 C 0 km/h
111 02-07-2008 22:11:01 24.2 C 12.54 g/m*3 24.2 C 0 km/h
112 02-07-2008 22:23:01 23.4 C 12.62 g/m*3 23.4 C 0 km/h
113 02-07-2008 22:35:01 23.3 C 12.13 g/m*3 23.3 C 0 km/h
114 02-07-2008 22:47:01 23.5 C 12.27 g/m*3 23.5 C 0 km/h
115 02-07-2008 22:59:01 23.4 C 11.78 g/m*3 23.4 C 0 km/h
116 02-07-2008 23:11:01 23.3 C 11.92 g/m*3 23.3 C 0 km/h
117 02-07-2008 23:23:01 23 C 12.13 g/m*3 23 C 0 km/h
118 02-07-2008 23:35:01 22.7 C 12.12 g/m*3 22.7 C 0 km/h
119 02-07-2008 23:47:01 22.7 C 12.12 g/m*3 22.7 C 0 km/h
120 02-07-2008 23:59:02 22.6 C 12.05 g/m*3 22.6 C 0 km/h
121 03-07-2008 00:11:02 22.7 C 11.92 g/m*3 22.7 C 0 km/h
122 03-07-2008 00:23:02 22.7 C 11.72 g/m*3 22.7 C 0 km/h
123 03-07-2008 00:35:02 22.5 C 11.58 g/m*3 22.5 C 0 km/h
124 03-07-2008 00:47:02 22.3 C 11.45 g/m*3 22.3 C 0 km/h
125 03-07-2008 00:59:02 21.6 C 11.76 g/m*3 21.6 C 0 km/h
Sensor: Nr:Datum:Temp:Abs-Feuchte:Windchill:Wind:
Aussen-T/F 126 03-07-2008 01:11:02 21.3 C 11.93 g/m*3 21.3 C 0 km/h
127 03-07-2008 01:23:02 21.3 C 12.12 g/m*3 21.3 C 0 km/h
128 03-07-2008 01:35:02 20.5 C 12.99 g/m*3 20.5 C 0 km/h
129 03-07-2008 01:47:02 20.4 C 13.27 g/m*3 20.4 C 0 km/h
130 03-07-2008 01:59:02 21 C 13.19 g/m*3 21 C 0 km/h
131 03-07-2008 02:11:02 21.2 C 12.6 g/m*3 21.2 C 0 km/h
132 03-07-2008 02:23:02 21.2 C 12.23 g/m*3 21.2 C 0 km/h
133 03-07-2008 02:35:02 21.2 C 11.86 g/m*3 21.2 C 0 km/h
134 03-07-2008 02:47:02 21.3 C 11.93 g/m*3 21.3 C 0 km/h
135 03-07-2008 02:59:02 21.3 C 11.93 g/m*3 21.3 C 0 km/h
136 03-07-2008 03:11:02 21.3 C 11.93 g/m*3 21.3 C 0 km/h
137 03-07-2008 03:23:02 20 C 13.13 g/m*3 20 C 0 km/h
138 03-07-2008 03:35:02 19.4 C 13.51 g/m*3 19.4 C 0 km/h
139 03-07-2008 03:47:02 19.7 C 13.41 g/m*3 19.7 C 0 km/h
140 03-07-2008 03:59:02 19.9 C 13.4 g/m*3 19.9 C 0 km/h
141 03-07-2008 04:11:03 19.9 C 13.4 g/m*3 19.9 C 0 km/h
142 03-07-2008 04:23:03 20 C 13.48 g/m*3 20 C 0 km/h
143 03-07-2008 04:35:03 19.8 C 13.32 g/m*3 19.8 C 0 km/h
144 03-07-2008 04:47:03 19.8 C 13.32 g/m*3 19.8 C 0 km/h
145 03-07-2008 04:59:03 19.5 C 13.09 g/m*3 19.5 C 0 km/h
146 03-07-2008 05:11:03 19.5 C 13.26 g/m*3 19.5 C 0 km/h
147 03-07-2008 05:23:03 19.3 C 13.1 g/m*3 19.3 C 0 km/h
148 03-07-2008 05:35:03 19.3 C 13.1 g/m*3 19.3 C 0 km/h
149 03-07-2008 05:47:03 19.5 C 13.26 g/m*3 19.5 C 0 km/h
150 03-07-2008 05:59:03 19.5 C 13.26 g/m*3 19.5 C 0 km/h
Sensor: Nr:Datum:Temp:Abs-Feuchte:Windchill:Wind:
Aussen-T/F 151 03-07-2008 06:11:03 19.4 C 13.18 g/m*3 19.4 C 0 km/h
152 03-07-2008 06:23:03 19.7 C 13.41 g/m*3 19.7 C 0 km/h
153 03-07-2008 06:35:02 19.9 C 13.57 g/m*3 19.9 C 0 km/h
154 03-07-2008 06:47:02 19.8 C 13.32 g/m*3 19.8 C 0 km/h
155 03-07-2008 06:59:02 20 C 13.13 g/m*3 20 C 0 km/h
156 03-07-2008 07:11:02 20.2 C 13.46 g/m*3 20.2 C 0 km/h
157 03-07-2008 07:23:02 20.6 C 13.42 g/m*3 20.6 C 0 km/h
158 03-07-2008 07:35:02 20.8 C 13.4 g/m*3 20.8 C 0 km/h
159 03-07-2008 07:47:02 20.6 C 12.71 g/m*3 20.6 C 0 km/h
160 03-07-2008 07:59:02 20.8 C 12.86 g/m*3 20.8 C 0 km/h
161 03-07-2008 08:11:02 21.5 C 12.63 g/m*3 21.5 C 0 km/h
162 03-07-2008 08:23:02 21.2 C 12.42 g/m*3 21.2 C 0 km/h
163 03-07-2008 08:35:02 21.4 C 12.56 g/m*3 21.4 C 0 km/h
164 03-07-2008 08:47:02 21.7 C 12.02 g/m*3 21.7 C 0 km/h
165 03-07-2008 08:59:02 21.2 C 11.68 g/m*3 21.2 C 0 km/h
166 03-07-2008 09:11:02 21.6 C 12.14 g/m*3 21.6 C 0 km/h
167 03-07-2008 09:23:02 22 C 12.03 g/m*3 22 C 0 km/h
168 03-07-2008 09:35:02 22.2 C 11.78 g/m*3 22.2 C 0 km/h
169 03-07-2008 09:47:02 22.6 C 11.85 g/m*3 22.6 C 0 km/h
170 03-07-2008 09:59:02 23.3 C 11.71 g/m*3 23.3 C 0 km/h
171 03-07-2008 10:11:02 23.3 C 11.71 g/m*3 23.3 C 0 km/h
172 03-07-2008 10:23:02 22.8 C 11.79 g/m*3 22.8 C 0 km/h
173 03-07-2008 10:35:03 22.7 C 11.92 g/m*3 22.7 C 0 km/h
174 03-07-2008 10:47:02 22.5 C 11.98 g/m*3 22.5 C 0 km/h
175 03-07-2008 10:59:02 22.7 C 12.12 g/m*3 22.7 C 0 km/h
Sensor: Nr:Datum:Temp:Abs-Feuchte:Windchill:Wind:
Aussen-T/F 176 03-07-2008 11:11:02 22.9 C 11.85 g/m*3 22.9 C 0 km/h
177 03-07-2008 11:23:02 23.1 C 11.78 g/m*3 23.1 C 0 km/h
178 03-07-2008 11:35:01 23 C 11.92 g/m*3 23 C 0 km/h
179 03-07-2008 11:47:02 23.8 C 11.83 g/m*3 23.8 C 0 km/h
180 03-07-2008 11:59:02 24.2 C 11.66 g/m*3 24.2 C 0 km/h
181 03-07-2008 12:11:01 23.5 C 11.84 g/m*3 23.5 C 0 km/h
182 03-07-2008 12:23:02 23.7 C 11.76 g/m*3 23.7 C 0 km/h
183 03-07-2008 12:35:01 23.7 C 11.76 g/m*3 23.7 C 0 km/h
184 03-07-2008 12:47:02 23.5 C 12.05 g/m*3 23.5 C 0 km/h
185 03-07-2008 12:59:02 23.3 C 12.55 g/m*3 23.3 C 0 km/h
186 03-07-2008 13:11:01 22.5 C 12.78 g/m*3 22.5 C 0 km/h
187 03-07-2008 13:23:02 23.4 C 13.67 g/m*3 23.4 C 0 km/h
188 03-07-2008 13:35:01 24.5 C 12.53 g/m*3 24.5 C 0 km/h
189 03-07-2008 13:47:02 25.1 C 11.57 g/m*3 25.1 C 0 km/h
190 03-07-2008 13:59:02 25.3 C 11.47 g/m*3 25.3 C 0 km/h
191 03-07-2008 14:11:02 25.7 C 11.01 g/m*3 25.7 C 0 km/h
192 03-07-2008 14:23:03 26.1 C 10.28 g/m*3 26.1 C 0 km/h
193 03-07-2008 14:35:02 26.1 C 10.53 g/m*3 26.1 C 0 km/h
194 03-07-2008 14:47:01 25.7 C 11.01 g/m*3 25.7 C 0 km/h
195 03-07-2008 14:59:01 23.9 C 11.03 g/m*3 23.9 C 0 km/h
196 03-07-2008 15:11:02 21.3 C 13.61 g/m*3 21.3 C 0 km/h
197 03-07-2008 15:23:01 20.2 C 13.99 g/m*3 20.2 C 0 km/h
198 03-07-2008 15:35:01 20 C 14.17 g/m*3 20 C 0 km/h
199 03-07-2008 15:47:01 20 C 14.34 g/m*3 20 C 0 km/h
200 03-07-2008 15:59:01 19.8 C 14.18 g/m*3 19.8 C 0 km/h
Sensor: Nr:Datum:Temp:Abs-Feuchte:Windchill:Wind:
Aussen-T/F 201 03-07-2008 16:11:02 19.9 C 14.26 g/m*3 19.9 C 0 km/h
202 03-07-2008 16:23:01 20.3 C 14.77 g/m*3 20.3 C 0 km/h
203 03-07-2008 16:35:02 20 C 14.52 g/m*3 20 C 0 km/h
204 03-07-2008 16:47:02 19.5 C 14.1 g/m*3 19.5 C 0 km/h
205 03-07-2008 16:59:02 17 C 12.01 g/m*3 17 C 0 km/h
206 03-07-2008 17:11:02 17 C 12.59 g/m*3 17 C 0 km/h
207 03-07-2008 17:23:02 17.4 C 13.19 g/m*3 17.4 C 0 km/h
208 03-07-2008 17:35:02 17.2 C 12.89 g/m*3 17.2 C 0 km/h
209 03-07-2008 17:47:02 16.8 C 12.44 g/m*3 16.8 C 0 km/h
210 03-07-2008 17:59:03 17.3 C 12.82 g/m*3 17.3 C 0 km/h
211 03-07-2008 18:11:01 17.8 C 13.05 g/m*3 17.8 C 0 km/h
212 03-07-2008 18:23:02 17.5 C 12.67 g/m*3 17.5 C 0 km/h
213 03-07-2008 18:35:02 17.5 C 12.82 g/m*3 17.5 C 0 km/h
214 03-07-2008 18:47:02 17.7 C 13.13 g/m*3 17.7 C 0 km/h
215 03-07-2008 18:59:02 17.7 C 13.13 g/m*3 17.7 C 0 km/h
216 03-07-2008 19:11:02 17.9 C 13.28 g/m*3 17.9 C 0 km/h
217 03-07-2008 19:23:02 17.7 C 12.82 g/m*3 17.7 C 0 km/h
218 03-07-2008 19:35:02 17.6 C 12.45 g/m*3 17.6 C 0 km/h
219 03-07-2008 19:47:02 17.6 C 12.6 g/m*3 17.6 C 0 km/h
220 03-07-2008 19:59:02 17.3 C 12.52 g/m*3 17.3 C 0 km/h
221 03-07-2008 20:11:02 17.1 C 12.52 g/m*3 17.1 C 0 km/h
222 03-07-2008 20:23:02 17.2 C 12.74 g/m*3 17.2 C 0 km/h
223 03-07-2008 20:35:02 17 C 12.44 g/m*3 17 C 0 km/h
224 03-07-2008 20:47:02 17.1 C 12.66 g/m*3 17.1 C 0 km/h
225 03-07-2008 20:59:02 17 C 12.73 g/m*3 17 C 0 km/h
Sensor: Nr:Datum:Temp:Abs-Feuchte:Windchill:Wind:
Aussen-T/F 226 03-07-2008 21:11:02 16.9 C 12.8 g/m*3 16.9 C 0 km/h
227 03-07-2008 21:23:02 16.8 C 12.72 g/m*3 16.8 C 0 km/h
228 03-07-2008 21:35:02 16.5 C 12.5 g/m*3 16.5 C 0 km/h
229 03-07-2008 21:47:02 16.4 C 12.42 g/m*3 16.4 C 0 km/h
230 03-07-2008 21:59:02 16 C 12.13 g/m*3 16 C 0 km/h
231 03-07-2008 22:12:02 15.6 C 11.97 g/m*3 15.6 C 0 km/h
232 03-07-2008 22:24:03 15.3 C 11.75 g/m*3 15.3 C 0 km/h
233 03-07-2008 22:36:03 15.5 C 12.03 g/m*3 15.5 C 0 km/h
234 03-07-2008 22:48:03 15.4 C 11.96 g/m*3 15.4 C 0 km/h
235 03-07-2008 23:00:03 15.3 C 11.88 g/m*3 15.3 C 0 km/h
236 03-07-2008 23:12:03 15.1 C 11.74 g/m*3 15.1 C 0 km/h
237 03-07-2008 23:24:03 15.2 C 11.81 g/m*3 15.2 C 0 km/h
238 03-07-2008 23:36:03 15.4 C 11.96 g/m*3 15.4 C 0 km/h
239 03-07-2008 23:48:03 15.4 C 11.96 g/m*3 15.4 C 0 km/h

Legende:
   Min
   Max


Maximal/Minimal-Werte vom 02.07.2008 - 03.07.2008

Sensor Min Max Avg
Temp
(Aussen-T/F)
15.1 °C
03-07-2008  23:12:03
35.3 °C
02-07-2008  17:58:02
23.35 °C
Abs-Feuchte
(Aussen-T/F)
6.86 g/m*3
02-07-2008  13:46:02
15.13 g/m*3
02-07-2008  20:58:01
10.98 g/m*3
Windchill
(Aussen-T/F)
15.1 C
03-07-2008  23:12:03
35.3 C
02-07-2008  17:58:02
23.25 C

Die Daten stammen von einer Davis Vantage Pro 2 Wetter-Station und werden unter Linux mit der Software wview2wettercgi und aufbereitet. Alle Angaben erfolgen ohne Gewähr für ihre Vollständigkeit oder Richtigkeit.
Kontakt: Rainer Krienke krienke@uni-koblenz.de . Meine Webseiten an der Uni Koblenz oder privat.
Version: $Revision: 0.78 $